Time;durP1;ratioP1;P1;durP2;ratioP2;P2;SDS_P1;SDS_P2;PMS_P1;PMS_P2;Temp;Humidity;BMP_temperature;BMP_pressure;BME280_temperature;BME280_humidity;BME280_pressure;Samples;Min_cycle;Max_cycle;Signal;HPM_P1;HPM_P2
2022/06/29 00:00:39;;;;;;;22.60;21.20;;;15.80;99.90;;;;;;5034097;28;20045;-72
2022/06/29 00:03:07;;;;;;;23.13;21.33;;;15.70;99.90;;;;;;5046655;28;20481;-73
2022/06/29 00:05:34;;;;;;;23.10;21.70;;;15.60;99.90;;;;;;5033249;28;20070;-72
2022/06/29 00:08:01;;;;;;;24.38;22.77;;;15.50;99.90;;;;;;5042468;28;20048;-73
2022/06/29 00:10:35;;;;;;;23.38;21.88;;;15.40;99.90;;;;;;5041894;28;20040;-72
2022/06/29 00:13:02;;;;;;;23.33;21.92;;;15.20;99.90;;;;;;5042327;28;20045;-72
2022/06/29 00:15:30;;;;;;;24.20;22.33;;;15.20;99.90;;;;;;5034593;28;20044;-73
2022/06/29 00:17:57;;;;;;;25.13;23.02;;;15.00;99.90;;;;;;5062536;28;20646;-71
2022/06/29 00:20:23;;;;;;;24.60;22.85;;;15.00;99.90;;;;;;5042838;28;20466;-72
2022/06/29 00:22:50;;;;;;;23.52;22.02;;;14.80;99.90;;;;;;5061422;28;20036;-72
2022/06/29 00:25:17;;;;;;;24.35;22.65;;;14.70;99.90;;;;;;5034887;28;20060;-72
2022/06/29 00:27:44;;;;;;;24.48;22.85;;;14.60;99.90;;;;;;5041504;28;20107;-72
2022/06/29 00:30:12;;;;;;;24.83;22.67;;;14.50;99.90;;;;;;5023693;28;20776;-73
2022/06/29 00:32:40;;;;;;;23.92;22.33;;;14.50;99.90;;;;;;5017050;28;20316;-72
2022/06/29 00:35:07;;;;;;;24.67;22.92;;;14.50;99.90;;;;;;5053080;28;20048;-72
2022/06/29 00:37:34;;;;;;;24.00;22.40;;;14.40;99.90;;;;;;5025194;28;20052;-72
2022/06/29 00:40:03;;;;;;;23.50;22.10;;;14.30;99.90;;;;;;5051029;28;20048;-72
2022/06/29 00:42:31;;;;;;;23.27;21.65;;;14.30;99.90;;;;;;5043121;28;20126;-73
2022/06/29 00:44:58;;;;;;;23.80;21.98;;;14.30;99.90;;;;;;5044260;28;20202;-73
2022/06/29 00:47:27;;;;;;;23.95;22.38;;;14.20;99.90;;;;;;5060648;28;20479;-73
2022/06/29 00:49:54;;;;;;;24.35;22.85;;;14.10;99.90;;;;;;5076446;22;20055;-73
2022/06/29 00:52:25;;;;;;;24.00;22.48;;;13.90;99.90;;;;;;5044980;28;20044;-72
2022/06/29 00:54:56;;;;;;;24.40;22.75;;;13.90;99.90;;;;;;5063002;28;20536;-73
2022/06/29 00:57:25;;;;;;;23.30;21.63;;;14.00;99.90;;;;;;5045044;28;20558;-72
2022/06/29 00:59:55;;;;;;;23.85;22.35;;;13.90;99.90;;;;;;5045502;28;20049;-73
2022/06/29 01:02:28;;;;;;;23.48;21.88;;;13.90;99.90;;;;;;5062490;28;20040;-72
2022/06/29 01:04:55;;;;;;;22.98;21.48;;;13.90;99.90;;;;;;5058406;28;20040;-73
2022/06/29 01:07:24;;;;;;;22.73;21.30;;;13.80;99.90;;;;;;5036736;28;20048;-72
2022/06/29 01:09:51;;;;;;;23.65;22.08;;;13.80;99.90;;;;;;5062834;28;20388;-72
2022/06/29 01:12:18;;;;;;;23.02;21.27;;;13.70;99.90;;;;;;5024976;28;20079;-72
2022/06/29 01:14:47;;;;;;;22.90;21.58;;;13.60;99.90;;;;;;5025721;28;20106;-73
2022/06/29 01:17:14;;;;;;;23.88;22.17;;;13.60;99.90;;;;;;5025603;28;20613;-73
2022/06/29 01:19:42;;;;;;;23.23;21.63;;;13.60;99.90;;;;;;5059653;28;20041;-73
2022/06/29 01:22:20;;;;;;;23.20;21.60;;;13.60;99.90;;;;;;5062492;28;20482;-72
2022/06/29 01:24:48;;;;;;;22.73;21.08;;;13.60;99.90;;;;;;5047100;28;20079;-73
2022/06/29 01:27:16;;;;;;;22.50;20.90;;;13.50;99.90;;;;;;5043980;28;20053;-72
2022/06/29 01:29:44;;;;;;;22.40;20.90;;;13.50;99.90;;;;;;5043174;28;20076;-72
2022/06/29 01:32:11;;;;;;;21.55;20.35;;;13.40;99.90;;;;;;5043586;28;20075;-72
2022/06/29 01:34:38;;;;;;;22.58;20.98;;;13.40;99.90;;;;;;5057754;28;20056;-73
2022/06/29 01:37:05;;;;;;;21.48;20.17;;;13.40;99.90;;;;;;5062476;28;20141;-72
2022/06/29 01:39:33;;;;;;;21.92;20.50;;;13.50;99.90;;;;;;5043040;28;20052;-72
2022/06/29 01:42:00;;;;;;;22.00;20.40;;;13.40;99.90;;;;;;5013193;28;20087;-73
2022/06/29 01:44:26;;;;;;;22.55;21.15;;;13.30;99.90;;;;;;5064316;28;20048;-72
2022/06/29 01:46:53;;;;;;;21.90;20.45;;;13.30;99.90;;;;;;5067483;28;20049;-72
2022/06/29 01:49:21;;;;;;;21.95;20.45;;;13.20;99.90;;;;;;5054265;28;20455;-72
2022/06/29 01:51:47;;;;;;;23.15;21.17;;;13.10;99.90;;;;;;5061736;28;20102;-73
2022/06/29 01:54:15;;;;;;;23.13;21.48;;;13.10;99.90;;;;;;5065502;28;20522;-73
2022/06/29 01:56:42;;;;;;;21.77;20.48;;;13.10;99.90;;;;;;5028269;28;20049;-73
2022/06/29 01:59:09;;;;;;;22.17;20.88;;;13.10;99.90;;;;;;5047486;28;20053;-73
2022/06/29 02:01:35;;;;;;;21.58;20.25;;;13.00;99.90;;;;;;5036215;28;20502;-73
2022/06/29 02:04:02;;;;;;;21.75;20.45;;;13.00;99.90;;;;;;5055796;28;20041;-73
2022/06/29 02:06:29;;;;;;;22.42;20.98;;;13.00;99.90;;;;;;5029524;28;20661;-73
2022/06/29 02:08:56;;;;;;;21.90;20.40;;;12.90;99.90;;;;;;5045470;28;20467;-73
2022/06/29 02:11:23;;;;;;;21.92;20.42;;;12.80;99.90;;;;;;5047582;28;20592;-73
2022/06/29 02:13:51;;;;;;;22.23;20.73;;;12.80;99.90;;;;;;5051331;28;20072;-73
2022/06/29 02:16:18;;;;;;;22.27;20.88;;;12.80;99.90;;;;;;5066179;28;20048;-73
2022/06/29 02:18:44;;;;;;;22.58;21.08;;;12.90;99.90;;;;;;5032570;28;20064;-73
2022/06/29 02:21:11;;;;;;;22.73;21.23;;;12.90;99.90;;;;;;5066951;28;20076;-73
2022/06/29 02:23:38;;;;;;;22.45;20.90;;;12.80;99.90;;;;;;5064552;28;20723;-73
2022/06/29 02:26:05;;;;;;;21.83;20.42;;;12.90;99.90;;;;;;5047218;28;20041;-73
2022/06/29 02:28:32;;;;;;;22.25;20.75;;;12.90;99.90;;;;;;5032378;28;20052;-73
2022/06/29 02:36:29;;;;;;;22.00;20.30;;;13.00;99.90;;;;;;5054334;28;20095;-73
2022/06/29 02:38:56;;;;;;;22.05;20.67;;;13.00;99.90;;;;;;5048090;28;20123;-73
2022/06/29 02:41:23;;;;;;;22.25;20.73;;;13.10;99.90;;;;;;5067539;28;20590;-73
2022/06/29 02:43:50;;;;;;;22.27;20.88;;;13.10;99.90;;;;;;5066963;28;20155;-73
2022/06/29 02:46:16;;;;;;;21.58;20.23;;;13.20;99.90;;;;;;5067175;28;20045;-73
2022/06/29 02:48:43;;;;;;;22.33;20.50;;;13.30;99.90;;;;;;5041662;28;20045;-73
2022/06/29 02:51:10;;;;;;;20.88;19.67;;;13.30;99.90;;;;;;5058420;28;20076;-72
2022/06/29 02:53:37;;;;;;;22.02;20.63;;;13.30;99.90;;;;;;5056114;28;20060;-73
2022/06/29 02:56:04;;;;;;;22.48;20.98;;;13.50;99.90;;;;;;5030280;28;20041;-72
2022/06/29 02:58:31;;;;;;;21.67;20.30;;;13.50;99.90;;;;;;5046887;28;20115;-72
2022/06/29 03:00:57;;;;;;;22.13;20.63;;;13.50;99.90;;;;;;5046668;28;20102;-72
2022/06/29 03:03:24;;;;;;;23.33;21.83;;;13.40;99.90;;;;;;5046626;28;20131;-72
2022/06/29 03:05:51;;;;;;;22.83;21.17;;;13.40;99.90;;;;;;5055424;28;20092;-73
2022/06/29 03:08:18;;;;;;;22.73;21.23;;;13.30;99.90;;;;;;5037989;28;20131;-72
2022/06/29 03:10:44;;;;;;;22.65;21.05;;;13.30;99.90;;;;;;5049426;28;20572;-72
2022/06/29 03:13:11;;;;;;;22.45;20.85;;;13.30;99.90;;;;;;5050516;28;20052;-73
2022/06/29 03:15:38;;;;;;;22.00;20.55;;;13.30;99.90;;;;;;5066472;28;20063;-72
2022/06/29 03:18:06;;;;;;;22.58;20.85;;;13.10;99.90;;;;;;5049527;28;20082;-72
2022/06/29 03:20:32;;;;;;;22.70;21.05;;;13.20;99.90;;;;;;5067022;28;20562;-73
2022/06/29 03:22:59;;;;;;;22.65;21.10;;;13.40;99.90;;;;;;5060125;28;20098;-73
2022/06/29 03:25:26;;;;;;;22.45;20.25;;;13.40;99.90;;;;;;5020468;28;20041;-72
2022/06/29 03:27:52;;;;;;;22.15;20.58;;;13.30;99.90;;;;;;5063717;28;20159;-73
2022/06/29 03:30:19;;;;;;;22.48;21.05;;;13.30;99.90;;;;;;5063862;28;20059;-72
2022/06/29 03:32:46;;;;;;;22.17;20.70;;;13.30;99.90;;;;;;5072653;28;20048;-73
2022/06/29 03:35:13;;;;;;;22.65;21.25;;;13.30;99.90;;;;;;5065598;28;20510;-72
2022/06/29 03:37:39;;;;;;;23.67;22.27;;;13.30;99.90;;;;;;5029917;28;20536;-73
2022/06/29 03:40:07;;;;;;;22.70;21.20;;;13.40;99.90;;;;;;5055765;28;20049;-73
2022/06/29 03:42:33;;;;;;;23.55;22.05;;;13.40;99.90;;;;;;5045960;28;20075;-73
2022/06/29 03:45:00;;;;;;;23.23;21.73;;;13.40;99.90;;;;;;5038285;28;20106;-73
2022/06/29 03:47:27;;;;;;;23.23;21.83;;;13.50;99.90;;;;;;5066198;28;20056;-72
2022/06/29 03:49:53;;;;;;;23.33;21.83;;;13.40;99.90;;;;;;5049047;28;20048;-73
2022/06/29 03:52:20;;;;;;;22.92;21.25;;;13.50;99.90;;;;;;5063592;28;20087;-72
2022/06/29 03:54:47;;;;;;;23.05;21.40;;;13.50;99.90;;;;;;5058426;28;20103;-73
2022/06/29 03:57:14;;;;;;;23.55;22.10;;;13.90;99.90;;;;;;5048506;28;20040;-73
2022/06/29 03:59:40;;;;;;;23.48;21.88;;;13.90;99.90;;;;;;5066167;28;20068;-72
2022/06/29 04:02:07;;;;;;;25.27;23.67;;;14.00;99.90;;;;;;5062274;28;20041;-73
2022/06/29 04:04:34;;;;;;;25.98;24.20;;;14.10;99.90;;;;;;5064613;28;20049;-73
2022/06/29 04:07:01;;;;;;;29.42;27.40;;;14.10;99.90;;;;;;5047644;28;20048;-73
2022/06/29 04:09:28;;;;;;;31.13;28.92;;;14.10;99.90;;;;;;5060371;28;20082;-72
2022/06/29 04:11:56;;;;;;;32.40;30.20;;;14.10;99.90;;;;;;5058592;28;20368;-72
2022/06/29 04:14:27;;;;;;;29.83;27.52;;;14.40;99.90;;;;;;5065033;28;20097;-72
2022/06/29 04:16:56;;;;;;;29.98;27.88;;;14.50;99.90;;;;;;5047515;28;20231;-73
2022/06/29 04:19:23;;;;;;;28.30;26.35;;;14.60;99.90;;;;;;5064144;28;20101;-74
2022/06/29 04:21:50;;;;;;;26.63;24.58;;;14.80;99.90;;;;;;5044187;28;20048;-72
2022/06/29 04:24:17;;;;;;;26.25;24.55;;;15.00;99.90;;;;;;5034173;28;20117;-73
2022/06/29 04:26:45;;;;;;;25.20;23.60;;;15.20;99.90;;;;;;5026232;28;20041;-73
2022/06/29 04:29:12;;;;;;;24.67;23.05;;;15.30;99.90;;;;;;5044527;28;20044;-73
2022/06/29 04:31:38;;;;;;;25.92;24.27;;;15.30;99.90;;;;;;5026511;28;20103;-73
2022/06/29 04:34:05;;;;;;;25.48;23.88;;;15.50;99.90;;;;;;5044465;28;20106;-73
2022/06/29 04:36:32;;;;;;;24.45;22.95;;;15.60;99.90;;;;;;5027976;28;20107;-73
2022/06/29 04:38:59;;;;;;;26.05;24.35;;;15.70;99.90;;;;;;5063459;28;20505;-73
2022/06/29 04:41:25;;;;;;;24.73;22.98;;;16.00;99.90;;;;;;5051064;28;20508;-72
2022/06/29 04:43:52;;;;;;;24.88;23.30;;;16.20;99.90;;;;;;5043826;28;20048;-72
2022/06/29 04:46:19;;;;;;;24.90;23.30;;;16.60;99.90;;;;;;5044408;28;20174;-72
2022/06/29 04:48:52;;;;;;;23.80;22.38;;;16.70;99.90;;;;;;5052662;28;20136;-72
2022/06/29 04:51:18;;;;;;;22.85;21.30;;;17.00;99.90;;;;;;5044258;28;20047;-72
2022/06/29 04:53:46;;;;;;;23.02;21.70;;;17.10;99.90;;;;;;5050210;28;20052;-72
2022/06/29 04:56:15;;;;;;;24.08;22.63;;;17.30;99.90;;;;;;5063805;28;20044;-72
2022/06/29 04:58:43;;;;;;;23.48;22.00;;;17.50;99.90;;;;;;5063962;28;20064;-72
2022/06/29 05:01:10;;;;;;;22.25;21.05;;;17.60;99.90;;;;;;5044643;28;20731;-73
2022/06/29 05:03:36;;;;;;;22.13;20.83;;;17.60;99.90;;;;;;5063168;28;20044;-74
2022/06/29 05:06:03;;;;;;;22.90;21.63;;;17.80;99.90;;;;;;5064112;28;20035;-71
2022/06/29 05:08:30;;;;;;;23.17;21.75;;;18.00;99.90;;;;;;5044289;28;20052;-74
2022/06/29 05:10:57;;;;;;;22.10;20.90;;;18.20;99.90;;;;;;5054067;28;20052;-73
2022/06/29 05:13:24;;;;;;;23.05;21.48;;;18.50;99.90;;;;;;5044502;28;20110;-74
2022/06/29 05:15:51;;;;;;;22.63;21.23;;;18.60;99.90;;;;;;5055901;28;20400;-74
2022/06/29 05:18:17;;;;;;;23.38;21.92;;;18.60;99.90;;;;;;5034060;28;20049;-74
2022/06/29 05:20:54;;;;;;;22.02;20.83;;;18.60;99.90;;;;;;5047898;28;20743;-74
2022/06/29 05:23:21;;;;;;;22.38;20.98;;;18.70;99.90;;;;;;5057934;28;20102;-71
2022/06/29 05:25:47;;;;;;;22.92;21.52;;;18.70;99.90;;;;;;5055242;28;20041;-73
2022/06/29 05:28:14;;;;;;;22.58;21.08;;;18.70;99.90;;;;;;5035630;28;20084;-74
2022/06/29 05:30:41;;;;;;;22.00;20.70;;;18.70;99.90;;;;;;5038494;28;20044;-72
2022/06/29 05:33:08;;;;;;;22.38;21.00;;;18.80;99.90;;;;;;5047135;28;20076;-73
2022/06/29 05:35:34;;;;;;;22.90;21.60;;;19.00;99.90;;;;;;5046502;28;20785;-73
2022/06/29 05:38:01;;;;;;;22.15;20.83;;;18.90;99.90;;;;;;5047178;28;20132;-71
2022/06/29 05:40:30;;;;;;;22.33;20.90;;;18.90;99.90;;;;;;5058653;28;20048;-73
2022/06/29 05:42:58;;;;;;;21.95;20.65;;;19.20;99.90;;;;;;5065425;28;20106;-72
2022/06/29 05:45:25;;;;;;;22.05;20.85;;;19.40;99.90;;;;;;5065796;28;20049;-74
2022/06/29 05:47:55;;;;;;;22.10;20.60;;;19.30;99.90;;;;;;5066647;28;20068;-72
2022/06/29 05:50:23;;;;;;;22.70;21.40;;;19.30;99.90;;;;;;5065884;28;20158;-73
2022/06/29 05:52:51;;;;;;;22.77;21.48;;;19.10;99.90;;;;;;5058773;28;20090;-73
2022/06/29 05:55:17;;;;;;;23.35;21.77;;;19.00;99.90;;;;;;5043947;28;20080;-73
2022/06/29 05:57:45;;;;;;;22.40;21.20;;;19.00;99.90;;;;;;5066881;28;20041;-73
2022/06/29 06:00:13;;;;;;;23.50;21.90;;;19.00;99.90;;;;;;5058562;28;20363;-74
2022/06/29 06:02:40;;;;;;;23.38;21.98;;;18.90;99.90;;;;;;5036607;28;20049;-73
2022/06/29 06:05:07;;;;;;;23.88;22.35;;;18.90;99.90;;;;;;5065228;28;20099;-72
2022/06/29 06:07:34;;;;;;;22.40;21.10;;;18.90;99.90;;;;;;5047238;28;20055;-73
2022/06/29 06:10:02;;;;;;;22.40;21.10;;;18.90;99.90;;;;;;5065268;28;20133;-72
2022/06/29 06:12:30;;;;;;;23.33;21.90;;;19.10;99.90;;;;;;5029372;28;20602;-73
2022/06/29 06:14:58;;;;;;;24.10;22.80;;;19.50;99.90;;;;;;5045129;28;20103;-73
2022/06/29 06:17:26;;;;;;;23.85;22.55;;;19.70;99.90;;;;;;5042960;28;20057;-73
2022/06/29 06:20:01;;;;;;;;;;;19.90;99.90;;;;;;5064968;28;20368;-73
2022/06/29 06:22:28;;;;;;;24.60;22.88;;;20.00;99.90;;;;;;5045383;28;19966;-72
2022/06/29 06:24:55;;;;;;;24.17;22.88;;;20.10;99.90;;;;;;5057872;28;20073;-70
2022/06/29 06:27:21;;;;;;;26.42;24.48;;;20.10;99.90;;;;;;5054660;28;20082;-70
2022/06/29 06:29:48;;;;;;;25.88;24.10;;;20.10;99.90;;;;;;5047070;28;20060;-70
2022/06/29 06:32:15;;;;;;;25.17;23.65;;;20.20;99.90;;;;;;5064650;28;20675;-70
2022/06/29 06:34:41;;;;;;;24.83;23.33;;;20.40;99.90;;;;;;5064546;28;20143;-70
2022/06/29 06:37:08;;;;;;;24.25;22.77;;;20.40;99.90;;;;;;5064549;28;20066;-72
2022/06/29 06:39:35;;;;;;;24.60;23.20;;;20.60;99.90;;;;;;5058255;28;20065;-71
2022/06/29 06:42:02;;;;;;;24.33;22.83;;;21.00;99.90;;;;;;5050342;28;20094;-71
2022/06/29 06:44:29;;;;;;;25.02;23.50;;;20.70;99.90;;;;;;5031834;28;20062;-70
2022/06/29 06:47:00;;;;;;;26.08;24.00;;;20.60;99.90;;;;;;5056273;28;20050;-70
2022/06/29 06:49:27;;;;;;;24.85;23.55;;;20.50;99.90;;;;;;5048559;28;20576;-70
2022/06/29 06:51:53;;;;;;;25.80;24.40;;;20.40;99.90;;;;;;5085323;22;20036;-72
2022/06/29 06:54:20;;;;;;;23.58;22.33;;;20.30;99.90;;;;;;5059955;28;20102;-72
2022/06/29 06:56:47;;;;;;;26.30;24.70;;;20.30;99.90;;;;;;5055506;28;20652;-73
2022/06/29 06:59:14;;;;;;;25.67;24.35;;;20.30;99.90;;;;;;5064360;28;20110;-73
2022/06/29 07:01:40;;;;;;;26.25;24.75;;;20.50;99.90;;;;;;5047263;28;20419;-73
2022/06/29 07:04:15;;;;;;;25.88;24.45;;;21.10;99.90;;;;;;5026577;28;20251;-73
2022/06/29 07:06:42;;;;;;;27.05;25.35;;;21.60;99.90;;;;;;5042652;28;20052;-73
2022/06/29 07:09:09;;;;;;;27.05;25.45;;;21.40;99.90;;;;;;5029312;28;20056;-73
2022/06/29 07:11:36;;;;;;;26.50;25.10;;;21.40;99.90;;;;;;5042984;28;20079;-72
2022/06/29 07:14:03;;;;;;;26.38;24.88;;;21.70;99.90;;;;;;5058142;28;20060;-72
2022/06/29 07:16:29;;;;;;;26.55;25.05;;;22.10;99.90;;;;;;5058615;28;20071;-72
2022/06/29 07:18:56;;;;;;;25.73;24.33;;;22.40;99.90;;;;;;5042932;28;20068;-73
2022/06/29 07:21:23;;;;;;;28.23;26.30;;;22.80;99.90;;;;;;5024175;28;20045;-72
2022/06/29 07:23:50;;;;;;;27.60;26.08;;;22.40;99.90;;;;;;5042626;28;20107;-73
2022/06/29 07:26:17;;;;;;;28.60;26.90;;;22.20;99.90;;;;;;5043563;28;20095;-72
2022/06/29 07:28:44;;;;;;;27.17;25.65;;;22.10;99.90;;;;;;5043559;28;20114;-72
2022/06/29 07:31:10;;;;;;;28.05;26.38;;;22.30;99.90;;;;;;5043251;28;20102;-72
2022/06/29 07:33:37;;;;;;;28.15;26.25;;;22.80;99.90;;;;;;5041496;28;20049;-73
2022/06/29 07:36:04;;;;;;;27.73;26.00;;;23.10;99.90;;;;;;5024806;28;20052;-72
2022/06/29 07:38:31;;;;;;;28.67;26.73;;;23.20;99.90;;;;;;5036489;28;20508;-73
2022/06/29 07:40:59;;;;;;;27.85;26.17;;;23.10;99.90;;;;;;5024784;28;20087;-73
2022/06/29 07:43:26;;;;;;;26.98;25.48;;;23.30;99.90;;;;;;5024387;28;20049;-73
2022/06/29 07:45:57;;;;;;;28.17;26.27;;;23.50;99.90;;;;;;5043635;28;20059;-73
2022/06/29 07:48:25;;;;;;;28.50;26.67;;;23.60;99.90;;;;;;5035913;28;20046;-74
2022/06/29 07:50:52;;;;;;;25.30;23.88;;;23.70;99.90;;;;;;5035867;28;20114;-73
2022/06/29 07:53:20;;;;;;;25.42;23.92;;;23.40;99.90;;;;;;5041780;28;20037;-73
2022/06/29 07:55:46;;;;;;;25.25;23.70;;;23.30;99.90;;;;;;5045521;28;20036;-73
2022/06/29 07:58:15;;;;;;;25.88;23.95;;;23.50;99.90;;;;;;5025225;28;20266;-73
2022/06/29 08:00:42;;;;;;;25.30;23.88;;;23.50;99.90;;;;;;5042300;28;20049;-73
2022/06/29 08:03:09;;;;;;;27.25;25.27;;;22.90;99.90;;;;;;5042776;28;20136;-74
2022/06/29 08:05:36;;;;;;;25.83;24.40;;;22.30;99.90;;;;;;5022101;28;20044;-72
2022/06/29 08:08:04;;;;;;;27.08;25.42;;;22.10;99.90;;;;;;5004665;28;20317;-73
2022/06/29 08:10:31;;;;;;;26.42;24.83;;;22.10;99.90;;;;;;5038203;28;20122;-72
2022/06/29 08:12:59;;;;;;;27.42;25.55;;;22.10;99.90;;;;;;5023840;28;20610;-73
2022/06/29 08:15:27;;;;;;;27.23;25.63;;;22.20;99.90;;;;;;5018621;28;20056;-72
2022/06/29 08:17:54;;;;;;;26.10;24.30;;;22.30;99.90;;;;;;5036256;28;20095;-72
2022/06/29 08:20:21;;;;;;;25.75;24.20;;;22.40;99.90;;;;;;5011350;28;20045;-74
2022/06/29 08:22:48;;;;;;;25.17;23.85;;;22.60;99.90;;;;;;5010473;28;20527;-73
2022/06/29 08:25:15;;;;;;;26.17;24.67;;;22.40;99.90;;;;;;5035020;28;20055;-73
2022/06/29 08:27:42;;;;;;;26.08;24.58;;;22.50;99.90;;;;;;5036605;28;20503;-72
2022/06/29 08:30:13;;;;;;;25.35;24.05;;;22.50;99.90;;;;;;5037156;28;20148;-74
2022/06/29 08:32:41;;;;;;;26.73;24.95;;;22.20;99.90;;;;;;5039278;28;20283;-74
2022/06/29 08:35:09;;;;;;;25.60;24.20;;;22.30;99.90;;;;;;5022356;28;20049;-72
2022/06/29 08:37:37;;;;;;;27.10;25.30;;;22.20;99.90;;;;;;5037217;28;20094;-73
2022/06/29 08:40:09;;;;;;;27.25;25.52;;;22.30;99.90;;;;;;5040328;28;20044;-73
2022/06/29 08:42:37;;;;;;;26.15;24.65;;;22.50;99.90;;;;;;5041031;28;20053;-73
2022/06/29 08:45:06;;;;;;;25.85;24.42;;;22.70;99.90;;;;;;5022888;28;20098;-73
2022/06/29 08:47:33;;;;;;;25.70;24.10;;;22.70;99.90;;;;;;5040007;28;20142;-72
2022/06/29 08:50:03;;;;;;;26.48;24.98;;;22.60;99.90;;;;;;5026476;28;20122;-73
2022/06/29 08:52:30;;;;;;;26.98;25.38;;;22.80;99.90;;;;;;5040325;28;20482;-73
2022/06/29 08:54:58;;;;;;;26.50;24.83;;;22.80;99.90;;;;;;5022760;28;20115;-73
2022/06/29 08:57:26;;;;;;;26.98;25.48;;;22.60;99.90;;;;;;5040908;28;20049;-73
2022/06/29 08:59:54;;;;;;;28.05;26.55;;;22.50;99.90;;;;;;5008842;28;20565;-72
2022/06/29 09:02:28;;;;;;;27.80;26.05;;;22.50;99.90;;;;;;5038489;28;20139;-73
2022/06/29 09:04:55;;;;;;;27.50;25.70;;;22.50;99.90;;;;;;5041297;28;20390;-72
2022/06/29 09:07:24;;;;;;;26.92;25.33;;;22.40;99.90;;;;;;5040480;28;20176;-73
2022/06/29 09:10:03;;;;;;;26.83;25.42;;;22.50;99.90;;;;;;5007100;28;20522;-72
2022/06/29 09:12:31;;;;;;;27.10;25.60;;;22.70;99.90;;;;;;5026201;28;20440;-73
2022/06/29 09:14:59;;;;;;;26.90;25.23;;;22.50;99.90;;;;;;5026019;28;20056;-73
2022/06/29 09:17:26;;;;;;;27.33;25.50;;;22.40;99.90;;;;;;5051829;28;20049;-73
2022/06/29 09:19:53;;;;;;;27.83;26.23;;;22.50;99.90;;;;;;5025289;28;20045;-73
2022/06/29 09:22:52;;;;;;;28.17;26.10;;;22.40;99.90;;;;;;5021170;28;20172;-73
2022/06/29 09:25:26;;;;;;;27.98;26.00;;;22.40;99.90;;;;;;5005324;28;20199;-73
2022/06/29 09:27:55;;;;;;;27.33;25.77;;;22.30;99.90;;;;;;5022938;28;20055;-73
2022/06/29 09:30:35;;;;;;;28.23;26.63;;;22.40;99.90;;;;;;5040058;28;20060;-72
2022/06/29 09:33:05;;;;;;;26.77;25.17;;;22.50;99.90;;;;;;5021252;28;20056;-72
2022/06/29 09:35:34;;;;;;;27.75;26.25;;;22.50;99.90;;;;;;5002347;28;20048;-73
2022/06/29 09:38:25;;;;;;;28.48;26.25;;;22.20;99.90;;;;;;5020753;28;20046;-73
2022/06/29 09:41:11;;;;;;;27.90;26.23;;;22.30;99.90;;;;;;5026239;28;20037;-73
2022/06/29 09:43:40;;;;;;;27.20;25.70;;;22.40;99.90;;;;;;5039877;28;20539;-73
2022/06/29 09:46:08;;;;;;;26.98;25.52;;;22.60;99.90;;;;;;5040300;28;20090;-74
2022/06/29 09:48:37;;;;;;;27.80;25.98;;;22.50;99.90;;;;;;5014329;28;20428;-74
2022/06/29 09:51:30;;;;;;;27.25;25.65;;;22.60;99.90;;;;;;5037784;28;20122;-73
2022/06/29 09:53:55;;;;;;;27.20;25.60;;;22.90;99.90;;;;;;5039202;28;20049;-73
2022/06/29 09:56:24;;;;;;;28.15;26.55;;;23.10;99.90;;;;;;5021075;28;20045;-72
2022/06/29 09:58:52;;;;;;;26.88;25.17;;;23.20;99.90;;;;;;5040221;28;20075;-73
2022/06/29 10:04:12;;;;;;;26.25;24.65;;;23.60;99.90;;;;;;5044028;28;20488;-73
2022/06/29 10:06:39;;;;;;;25.75;24.25;;;23.60;99.90;;;;;;5024416;28;20152;-73
2022/06/29 10:09:06;;;;;;;25.85;24.35;;;23.60;99.90;;;;;;5044139;28;20049;-75
2022/06/29 10:15:13;;;;;;;25.85;24.20;;;23.50;99.90;;;;;;5014159;28;20092;-73
2022/06/29 10:17:56;;;;;;;27.23;25.50;;;23.50;99.90;;;;;;5025590;28;20084;-73
2022/06/29 10:20:35;;;;;;;26.63;25.13;;;23.70;99.90;;;;;;5028149;28;20068;-72
2022/06/29 10:23:02;;;;;;;27.80;26.17;;;23.50;99.90;;;;;;5036819;28;20681;-72
2022/06/29 10:25:29;;;;;;;27.58;25.98;;;23.20;99.90;;;;;;5021579;28;20045;-74
2022/06/29 10:28:09;;;;;;;27.92;26.17;;;23.60;99.90;;;;;;5039265;28;20049;-75
2022/06/29 10:30:37;;;;;;;27.45;25.77;;;24.10;99.90;;;;;;5043599;28;20044;-75
2022/06/29 10:33:29;;;;;;;27.30;25.52;;;24.10;99.90;;;;;;5024294;28;20060;-73
2022/06/29 10:38:31;;;;;;;27.00;25.50;;;24.90;99.90;;;;;;5024705;28;20458;-75
2022/06/29 10:43:56;;;;;;;29.25;27.52;;;24.30;99.90;;;;;;5043414;28;20186;-75
2022/06/29 10:46:23;;;;;;;28.48;26.83;;;24.70;99.90;;;;;;5008730;28;20124;-76
2022/06/29 10:49:19;;;;;;;28.25;26.45;;;25.00;99.90;;;;;;5008807;28;20114;-76
2022/06/29 10:51:49;;;;;;;29.25;27.42;;;25.40;99.90;;;;;;5042266;28;20049;-74
2022/06/29 10:54:27;;;;;;;28.55;26.95;;;25.30;99.90;;;;;;5025246;28;20453;-76
2022/06/29 10:56:55;;;;;;;28.92;27.33;;;25.60;99.90;;;;;;5009551;28;20060;-75
2022/06/29 10:59:39;;;;;;;29.45;27.38;;;25.60;99.90;;;;;;5024995;28;20200;-74
2022/06/29 11:02:10;;;;;;;29.05;27.27;;;25.50;99.90;;;;;;5043396;28;20052;-75
2022/06/29 11:04:38;;;;;;;28.83;26.90;;;26.00;99.90;;;;;;5042427;28;20099;-74
2022/06/29 11:12:54;;;;;;;29.33;27.52;;;25.80;99.90;;;;;;5043263;28;20106;-74
2022/06/29 11:15:48;;;;;;;29.65;27.65;;;25.80;99.90;;;;;;5024058;28;20067;-74
2022/06/29 11:18:17;;;;;;;29.65;27.58;;;25.80;99.90;;;;;;5042461;28;20098;-75
2022/06/29 11:20:48;;;;;;;28.25;26.17;;;25.40;99.90;;;;;;5023773;28;20266;-73
2022/06/29 11:23:20;;;;;;;27.75;25.90;;;25.30;99.90;;;;;;5032555;28;20166;-74
2022/06/29 11:25:49;;;;;;;27.35;25.65;;;25.70;99.90;;;;;;5024804;28;20116;-76
2022/06/29 11:28:18;;;;;;;28.00;26.30;;;25.60;99.90;;;;;;5024898;28;20124;-75
2022/06/29 11:31:13;;;;;;;28.38;26.58;;;25.80;99.90;;;;;;5022680;28;20136;-75
2022/06/29 11:33:44;;;;;;;;;;;26.40;99.90;;;;;;5021965;28;20358;-76
2022/06/29 11:36:17;;;;;;;29.40;27.52;;;26.60;99.90;;;;;;5021379;28;20000;-76
2022/06/29 11:38:47;;;;;;;27.27;25.58;;;27.00;99.90;;;;;;5008882;28;20109;-75
2022/06/29 11:43:03;;;;;;;28.75;26.95;;;27.30;99.90;;;;;;5039380;28;20047;-75
2022/06/29 11:44:27;;;;;;;28.52;26.88;;;27.40;99.90;;;;;;5019634;28;20049;-75
2022/06/29 11:46:55;;;;;;;27.95;26.25;;;26.10;99.90;;;;;;5022845;28;20064;-75
2022/06/29 11:49:36;;;;;;;28.65;26.95;;;26.10;99.90;;;;;;5035659;28;20102;-74
2022/06/29 11:52:06;;;;;;;28.25;26.48;;;25.80;99.90;;;;;;5042019;28;20535;-75
2022/06/29 11:54:34;;;;;;;29.20;27.50;;;25.60;99.90;;;;;;5039147;28;20044;-75
2022/06/29 11:57:04;;;;;;;29.60;27.90;;;26.00;99.90;;;;;;5024051;28;20075;-76
2022/06/29 11:59:34;;;;;;;25.77;24.17;;;26.30;99.90;;;;;;5007769;28;20087;-75
2022/06/29 12:02:02;;;;;;;28.05;26.15;;;26.20;99.90;;;;;;5025038;28;20541;-75
2022/06/29 12:04:31;;;;;;;27.20;25.60;;;26.00;99.90;;;;;;5023763;28;20056;-75
2022/06/29 12:07:07;;;;;;;29.20;27.50;;;26.20;99.90;;;;;;5042047;28;20041;-75
2022/06/29 12:09:37;;;;;;;27.20;25.70;;;26.10;99.90;;;;;;5039391;28;20099;-75
2022/06/29 12:12:06;;;;;;;27.52;25.42;;;26.10;99.90;;;;;;5023482;28;20131;-74
2022/06/29 12:14:33;;;;;;;28.08;26.58;;;26.10;99.90;;;;;;5039885;28;20056;-75
2022/06/29 12:17:00;;;;;;;28.65;27.02;;;26.10;99.90;;;;;;5041311;28;20049;-75
2022/06/29 12:19:27;;;;;;;28.52;26.92;;;25.80;99.90;;;;;;5040774;28;20079;-74
2022/06/29 12:21:57;;;;;;;28.90;27.30;;;26.10;99.90;;;;;;5041842;28;20098;-75
2022/06/29 12:24:25;;;;;;;28.45;26.85;;;26.70;99.90;;;;;;5024117;28;20496;-75
2022/06/29 12:26:52;;;;;;;27.40;25.90;;;26.60;99.90;;;;;;5041799;28;20037;-76
2022/06/29 12:29:19;;;;;;;28.42;26.83;;;26.30;99.90;;;;;;5024432;28;20425;-76
2022/06/29 12:31:46;;;;;;;29.27;27.58;;;26.10;99.90;;;;;;5006188;28;20537;-75
2022/06/29 12:34:15;;;;;;;28.90;27.20;;;25.80;99.90;;;;;;5023002;28;20408;-75
2022/06/29 12:36:54;;;;;;;29.55;27.85;;;26.00;99.90;;;;;;5022832;28;20452;-75
2022/06/29 12:39:21;;;;;;;28.27;26.67;;;26.20;99.90;;;;;;5041100;28;20423;-76
2022/06/29 12:41:48;;;;;;;28.80;27.02;;;26.30;99.90;;;;;;5034965;28;20099;-75
2022/06/29 12:44:14;;;;;;;28.63;26.92;;;26.20;99.90;;;;;;5042583;28;20467;-73
2022/06/29 12:46:42;;;;;;;28.10;26.30;;;26.80;99.90;;;;;;5040838;28;20049;-76
2022/06/29 12:49:09;;;;;;;29.70;27.90;;;26.90;99.90;;;;;;5014805;28;20071;-75
2022/06/29 12:51:36;;;;;;;29.73;27.75;;;26.70;99.90;;;;;;5072265;22;20087;-75
2022/06/29 12:54:03;;;;;;;28.48;26.88;;;26.50;99.90;;;;;;5060587;28;20044;-74
2022/06/29 12:56:30;;;;;;;28.58;26.88;;;26.70;99.90;;;;;;5060682;28;20056;-74
2022/06/29 12:58:57;;;;;;;29.75;27.80;;;26.90;99.90;;;;;;5042639;28;20203;-74